Terminal Aerodrome Forecast
Issued by NWS Dodge City, KS

Home | Current Version | Previous Version | Graphics & Text | Print | Product List | Glossary Off
Versions: 1 2 3 4 5 6 7 8 9 10 11 12 13 14 15 16 17 18 19 20 21 22 23 24 25 26 27 28 29 30 31 32 33

313
FTUS43 KDDC 292158 AAA
TAFDDC
TAF AMD
KDDC 292158Z 2922/3018 36025G35KT 3SM -RA OVC006
      TEMPO 2922/2924 2SM -RA BR
     FM300900 35020G30KT 3SM -SN OVC008=

USA.gov is the U.S. government's official web portal to all federal, state and local government web resources and services.